sensor_id;sensor_type;location;lat;lon;timestamp;pressure;altitude;pressure_sealevel;temperature;humidity
16016;BME280;8112;53.592;10.184;2022-11-25T00:02:42;101053.31;;;3.35;100.00
16016;BME280;8112;53.592;10.184;2022-11-25T00:07:46;101054.47;;;3.23;100.00
16016;BME280;8112;53.592;10.184;2022-11-25T00:12:48;101059.63;;;3.24;100.00
16016;BME280;8112;53.592;10.184;2022-11-25T00:17:50;101053.59;;;3.22;100.00
16016;BME280;8112;53.592;10.184;2022-11-25T00:22:54;101048.38;;;3.22;100.00
16016;BME280;8112;53.592;10.184;2022-11-25T00:27:55;101052.78;;;3.19;100.00
16016;BME280;8112;53.592;10.184;2022-11-25T00:32:58;101047.72;;;3.12;100.00
16016;BME280;8112;53.592;10.184;2022-11-25T00:38:01;101046.19;;;3.05;100.00
16016;BME280;8112;53.592;10.184;2022-11-25T00:43:05;101057.50;;;3.03;100.00
16016;BME280;8112;53.592;10.184;2022-11-25T00:48:24;101054.91;;;3.03;100.00
16016;BME280;8112;53.592;10.184;2022-11-25T00:53:29;101053.94;;;3.07;100.00
16016;BME280;8112;53.592;10.184;2022-11-25T00:58:31;101059.06;;;3.10;100.00
16016;BME280;8112;53.592;10.184;2022-11-25T01:03:33;101059.13;;;3.07;100.00
16016;BME280;8112;53.592;10.184;2022-11-25T01:08:38;101053.03;;;3.08;100.00
16016;BME280;8112;53.592;10.184;2022-11-25T01:13:40;101040.06;;;3.06;100.00
16016;BME280;8112;53.592;10.184;2022-11-25T01:18:43;101036.66;;;3.03;100.00
16016;BME280;8112;53.592;10.184;2022-11-25T01:23:47;101031.28;;;3.10;100.00
16016;BME280;8112;53.592;10.184;2022-11-25T01:28:52;101026.91;;;3.12;100.00
16016;BME280;8112;53.592;10.184;2022-11-25T01:34:00;101034.72;;;3.12;100.00
16016;BME280;8112;53.592;10.184;2022-11-25T01:39:04;101050.13;;;3.22;100.00
16016;BME280;8112;53.592;10.184;2022-11-25T01:44:09;101042.44;;;3.17;100.00
16016;BME280;8112;53.592;10.184;2022-11-25T01:49:14;101028.72;;;3.09;100.00
16016;BME280;8112;53.592;10.184;2022-11-25T01:54:21;101028.03;;;3.01;100.00
16016;BME280;8112;53.592;10.184;2022-11-25T01:59:25;101013.41;;;2.95;100.00
16016;BME280;8112;53.592;10.184;2022-11-25T02:04:30;101008.31;;;2.90;100.00
16016;BME280;8112;53.592;10.184;2022-11-25T02:09:36;101005.44;;;3.03;100.00
16016;BME280;8112;53.592;10.184;2022-11-25T02:14:39;101016.63;;;3.06;100.00
16016;BME280;8112;53.592;10.184;2022-11-25T02:19:52;101012.31;;;3.05;100.00
16016;BME280;8112;53.592;10.184;2022-11-25T02:25:07;101024.53;;;3.03;100.00
16016;BME280;8112;53.592;10.184;2022-11-25T02:30:10;101021.91;;;3.03;100.00
16016;BME280;8112;53.592;10.184;2022-11-25T02:35:35;101019.25;;;3.06;100.00
16016;BME280;8112;53.592;10.184;2022-11-25T02:40:44;101019.25;;;3.06;100.00
16016;BME280;8112;53.592;10.184;2022-11-25T02:45:54;101015.75;;;3.07;100.00
16016;BME280;8112;53.592;10.184;2022-11-25T02:50:57;101026.91;;;3.12;100.00
16016;BME280;8112;53.592;10.184;2022-11-25T02:56:01;101026.16;;;3.07;100.00
16016;BME280;8112;53.592;10.184;2022-11-25T03:01:03;101028.84;;;3.04;100.00
16016;BME280;8112;53.592;10.184;2022-11-25T03:06:05;101027.72;;;3.14;100.00
16016;BME280;8112;53.592;10.184;2022-11-25T03:11:17;101032.00;;;3.17;100.00
16016;BME280;8112;53.592;10.184;2022-11-25T03:16:19;101043.34;;;3.14;100.00
16016;BME280;8112;53.592;10.184;2022-11-25T03:21:21;101031.22;;;3.13;100.00
16016;BME280;8112;53.592;10.184;2022-11-25T03:26:25;101042.53;;;3.11;100.00
16016;BME280;8112;53.592;10.184;2022-11-25T03:31:27;101034.88;;;3.06;100.00
16016;BME280;8112;53.592;10.184;2022-11-25T03:36:29;101023.56;;;3.06;100.00
16016;BME280;8112;53.592;10.184;2022-11-25T03:41:32;101016.59;;;3.08;100.00
16016;BME280;8112;53.592;10.184;2022-11-25T03:46:35;101035.63;;;3.10;100.00
16016;BME280;8112;53.592;10.184;2022-11-25T03:51:39;101033.88;;;3.12;100.00
16016;BME280;8112;53.592;10.184;2022-11-25T03:56:43;101035.63;;;3.10;100.00
16016;BME280;8112;53.592;10.184;2022-11-25T04:01:45;101033.91;;;3.09;100.00
16016;BME280;8112;53.592;10.184;2022-11-25T04:06:47;101041.03;;;3.02;100.00
16016;BME280;8112;53.592;10.184;2022-11-25T04:11:51;101037.50;;;3.05;100.00
16016;BME280;8112;53.592;10.184;2022-11-25T04:17:21;101047.09;;;3.03;100.00
16016;BME280;8112;53.592;10.184;2022-11-25T04:22:25;101040.91;;;3.07;100.00
16016;BME280;8112;53.592;10.184;2022-11-25T04:27:28;101048.81;;;3.04;100.00
16016;BME280;8112;53.592;10.184;2022-11-25T04:32:31;101035.78;;;3.04;100.00
16016;BME280;8112;53.592;10.184;2022-11-25T04:37:33;101017.66;;;2.99;100.00
16016;BME280;8112;53.592;10.184;2022-11-25T04:42:37;101012.44;;;2.99;100.00
16016;BME280;8112;53.592;10.184;2022-11-25T04:47:44;101022.84;;;2.99;100.00
16016;BME280;8112;53.592;10.184;2022-11-25T04:52:47;101021.13;;;2.99;100.00
16016;BME280;8112;53.592;10.184;2022-11-25T04:57:50;101034.22;;;2.96;100.00
16016;BME280;8112;53.592;10.184;2022-11-25T05:02:53;101037.63;;;2.98;100.00
16016;BME280;8112;53.592;10.184;2022-11-25T05:07:56;101047.97;;;3.02;100.00
16016;BME280;8112;53.592;10.184;2022-11-25T05:13:00;101047.06;;;3.04;100.00
16016;BME280;8112;53.592;10.184;2022-11-25T05:18:04;101037.41;;;3.09;100.00
16016;BME280;8112;53.592;10.184;2022-11-25T05:23:15;101045.09;;;3.14;100.00
16016;BME280;8112;53.592;10.184;2022-11-25T05:28:19;101051.91;;;3.20;100.00
16016;BME280;8112;53.592;10.184;2022-11-25T05:33:21;101050.13;;;3.22;100.00
16016;BME280;8112;53.592;10.184;2022-11-25T05:38:24;101044.94;;;3.22;100.00
16016;BME280;8112;53.592;10.184;2022-11-25T05:43:28;101051.78;;;3.26;100.00
16016;BME280;8112;53.592;10.184;2022-11-25T05:48:31;101051.78;;;3.24;100.00
16016;BME280;8112;53.592;10.184;2022-11-25T05:53:34;101050.00;;;3.28;100.00
16016;BME280;8112;53.592;10.184;2022-11-25T05:58:38;101028.34;;;3.24;100.00
16016;BME280;8112;53.592;10.184;2022-11-25T06:03:41;101034.34;;;3.28;100.00
16016;BME280;8112;53.592;10.184;2022-11-25T06:08:44;101035.09;;;3.33;100.00
16016;BME280;8112;53.592;10.184;2022-11-25T06:13:48;101029.69;;;3.41;100.00
16016;BME280;8112;53.592;10.184;2022-11-25T06:18:51;101029.63;;;3.44;100.00
16016;BME280;8112;53.592;10.184;2022-11-25T06:23:53;101022.00;;;3.36;100.00
16016;BME280;8112;53.592;10.184;2022-11-25T06:28:58;101019.66;;;3.25;100.00
16016;BME280;8112;53.592;10.184;2022-11-25T06:34:00;101021.50;;;3.20;100.00
16016;BME280;8112;53.592;10.184;2022-11-25T06:39:02;101018.94;;;3.19;100.00
16016;BME280;8112;53.592;10.184;2022-11-25T06:44:05;101034.69;;;3.14;100.00
16016;BME280;8112;53.592;10.184;2022-11-25T06:49:07;101052.91;;;3.14;100.00
16016;BME280;8112;53.592;10.184;2022-11-25T06:54:09;101046.66;;;3.21;100.00
16016;BME280;8112;53.592;10.184;2022-11-25T06:59:12;101054.41;;;3.24;100.00
16016;BME280;8112;53.592;10.184;2022-11-25T07:04:14;101047.56;;;3.20;100.00
16016;BME280;8112;53.592;10.184;2022-11-25T07:09:16;101061.25;;;3.28;100.00
16016;BME280;8112;53.592;10.184;2022-11-25T07:14:20;101043.63;;;3.40;100.00
16016;BME280;8112;53.592;10.184;2022-11-25T07:19:22;101048.75;;;3.43;100.00
16016;BME280;8112;53.592;10.184;2022-11-25T07:24:24;101056.44;;;3.49;100.00
16016;BME280;8112;53.592;10.184;2022-11-25T07:29:27;101055.31;;;3.60;100.00
16016;BME280;8112;53.592;10.184;2022-11-25T07:34:30;101074.00;;;3.77;100.00
16016;BME280;8112;53.592;10.184;2022-11-25T07:39:32;101097.16;;;3.90;100.00
16016;BME280;8112;53.592;10.184;2022-11-25T07:44:35;101089.91;;;4.01;100.00
16016;BME280;8112;53.592;10.184;2022-11-25T07:50:03;101078.34;;;4.11;100.00
16016;BME280;8112;53.592;10.184;2022-11-25T07:55:05;101078.16;;;4.18;100.00
16016;BME280;8112;53.592;10.184;2022-11-25T08:00:10;101085.03;;;4.22;100.00
16016;BME280;8112;53.592;10.184;2022-11-25T08:05:13;101077.03;;;4.28;100.00
16016;BME280;8112;53.592;10.184;2022-11-25T08:10:16;101088.19;;;4.33;100.00
16016;BME280;8112;53.592;10.184;2022-11-25T08:15:19;101098.13;;;4.52;100.00
16016;BME280;8112;53.592;10.184;2022-11-25T08:20:21;101103.09;;;4.61;100.00
16016;BME280;8112;53.592;10.184;2022-11-25T08:25:22;101108.75;;;4.76;100.00
16016;BME280;8112;53.592;10.184;2022-11-25T08:30:27;101112.63;;;4.94;100.00
16016;BME280;8112;53.592;10.184;2022-11-25T08:35:29;101107.16;;;5.02;100.00
16016;BME280;8112;53.592;10.184;2022-11-25T08:40:34;101107.38;;;4.94;100.00
16016;BME280;8112;53.592;10.184;2022-11-25T08:45:37;101098.31;;;5.06;100.00
16016;BME280;8112;53.592;10.184;2022-11-25T08:50:39;101090.38;;;5.10;100.00
16016;BME280;8112;53.592;10.184;2022-11-25T08:55:43;101092.09;;;5.10;100.00
16016;BME280;8112;53.592;10.184;2022-11-25T09:00:46;101099.78;;;5.16;100.00
16016;BME280;8112;53.592;10.184;2022-11-25T09:05:48;101096.59;;;5.35;100.00
16016;BME280;8112;53.592;10.184;2022-11-25T09:10:51;101091.28;;;5.36;100.00
16016;BME280;8112;53.592;10.184;2022-11-25T09:15:54;101097.19;;;5.43;100.00
16016;BME280;8112;53.592;10.184;2022-11-25T09:20:57;101104.34;;;5.38;100.00
16016;BME280;8112;53.592;10.184;2022-11-25T09:25:59;101108.66;;;5.39;100.00
16016;BME280;8112;53.592;10.184;2022-11-25T09:31:07;101115.16;;;5.54;100.00
16016;BME280;8112;53.592;10.184;2022-11-25T09:36:11;101122.56;;;5.68;100.00
16016;BME280;8112;53.592;10.184;2022-11-25T09:41:23;101121.53;;;5.99;100.00
16016;BME280;8112;53.592;10.184;2022-11-25T09:46:55;101138.34;;;6.19;100.00
16016;BME280;8112;53.592;10.184;2022-11-25T09:52:10;101122.34;;;6.28;100.00
16016;BME280;8112;53.592;10.184;2022-11-25T09:57:22;101130.63;;;6.16;100.00
16016;BME280;8112;53.592;10.184;2022-11-25T10:02:33;101124.59;;;5.87;100.00
16016;BME280;8112;53.592;10.184;2022-11-25T10:07:38;101132.31;;;5.63;100.00
16016;BME280;8112;53.592;10.184;2022-11-25T10:12:43;101129.66;;;5.64;100.00
16016;BME280;8112;53.592;10.184;2022-11-25T10:17:48;101144.72;;;5.56;100.00
16016;BME280;8112;53.592;10.184;2022-11-25T10:22:54;101136.72;;;5.61;100.00
16016;BME280;8112;53.592;10.184;2022-11-25T10:27:59;101152.22;;;5.67;100.00
16016;BME280;8112;53.592;10.184;2022-11-25T10:33:09;101150.50;;;5.66;100.00
16016;BME280;8112;53.592;10.184;2022-11-25T10:38:24;101148.72;;;5.68;100.00
16016;BME280;8112;53.592;10.184;2022-11-25T10:43:27;101149.34;;;5.75;100.00
16016;BME280;8112;53.592;10.184;2022-11-25T10:48:43;101150.31;;;5.72;100.00
16016;BME280;8112;53.592;10.184;2022-11-25T10:54:11;101145.19;;;5.69;100.00
16016;BME280;8112;53.592;10.184;2022-11-25T10:59:22;101146.69;;;5.76;100.00
16016;BME280;8112;53.592;10.184;2022-11-25T11:04:25;101152.25;;;5.94;100.00
16016;BME280;8112;53.592;10.184;2022-11-25T11:09:33;101153.94;;;5.95;100.00
16016;BME280;8112;53.592;10.184;2022-11-25T11:14:35;101157.69;;;5.88;100.00
16016;BME280;8112;53.592;10.184;2022-11-25T11:19:38;101156.38;;;6.01;100.00
16016;BME280;8112;53.592;10.184;2022-11-25T11:24:40;101159.66;;;6.08;100.00
16016;BME280;8112;53.592;10.184;2022-11-25T11:29:42;101166.88;;;5.99;100.00
16016;BME280;8112;53.592;10.184;2022-11-25T11:34:54;101171.13;;;6.04;100.00
16016;BME280;8112;53.592;10.184;2022-11-25T11:40:11;101173.63;;;6.08;100.00
16016;BME280;8112;53.592;10.184;2022-11-25T11:45:30;101166.16;;;6.23;100.00
16016;BME280;8112;53.592;10.184;2022-11-25T11:50:38;101176.00;;;6.41;100.00
16016;BME280;8112;53.592;10.184;2022-11-25T11:55:53;101177.59;;;6.46;100.00
16016;BME280;8112;53.592;10.184;2022-11-25T12:01:04;101186.25;;;6.48;100.00
16016;BME280;8112;53.592;10.184;2022-11-25T12:06:14;101189.28;;;6.35;100.00
16016;BME280;8112;53.592;10.184;2022-11-25T12:11:20;101196.66;;;6.24;100.00
16016;BME280;8112;53.592;10.184;2022-11-25T12:16:26;101192.13;;;6.29;100.00
16016;BME280;8112;53.592;10.184;2022-11-25T12:21:41;101193.59;;;6.36;100.00
16016;BME280;8112;53.592;10.184;2022-11-25T12:26:49;101193.41;;;6.43;100.00
16016;BME280;8112;53.592;10.184;2022-11-25T12:31:57;101182.19;;;6.39;100.00
16016;BME280;8112;53.592;10.184;2022-11-25T12:37:09;101182.22;;;6.37;100.00
16016;BME280;8112;53.592;10.184;2022-11-25T12:42:14;101188.06;;;6.46;100.00
16016;BME280;8112;53.592;10.184;2022-11-25T12:47:17;101191.72;;;6.41;100.00
16016;BME280;8112;53.592;10.184;2022-11-25T13:03:46;101207.59;;;6.62;100.00
16016;BME280;8112;53.592;10.184;2022-11-25T13:09:01;101205.31;;;6.77;100.00
16016;BME280;8112;53.592;10.184;2022-11-25T13:14:17;101207.78;;;6.81;100.00
16016;BME280;8112;53.592;10.184;2022-11-25T13:19:22;101215.75;;;6.78;100.00
16016;BME280;8112;53.592;10.184;2022-11-25T13:24:31;101223.19;;;6.91;100.00
16016;BME280;8112;53.592;10.184;2022-11-25T13:29:59;101224.38;;;7.06;100.00
16016;BME280;8112;53.592;10.184;2022-11-25T13:35:35;101233.31;;;7.00;100.00
16016;BME280;8112;53.592;10.184;2022-11-25T13:40:39;101234.19;;;7.01;100.00
16016;BME280;8112;53.592;10.184;2022-11-25T13:45:43;101236.00;;;6.98;100.00
16016;BME280;8112;53.592;10.184;2022-11-25T13:50:46;101242.88;;;7.01;100.00
16016;BME280;8112;53.592;10.184;2022-11-25T13:55:49;101247.16;;;7.04;100.00
16016;BME280;8112;53.592;10.184;2022-11-25T14:01:11;101249.13;;;7.22;100.00
16016;BME280;8112;53.592;10.184;2022-11-25T14:06:48;101243.44;;;7.35;100.00
16016;BME280;8112;53.592;10.184;2022-11-25T14:12:06;101268.94;;;7.30;100.00
16016;BME280;8112;53.592;10.184;2022-11-25T14:17:32;101261.78;;;7.35;100.00
16016;BME280;8112;53.592;10.184;2022-11-25T14:23:00;101272.09;;;7.39;100.00
16016;BME280;8112;53.592;10.184;2022-11-25T14:28:08;101275.63;;;7.38;100.00
16016;BME280;8112;53.592;10.184;2022-11-25T14:33:19;101286.81;;;7.44;100.00
16016;BME280;8112;53.592;10.184;2022-11-25T14:38:28;101289.72;;;7.36;100.00
16016;BME280;8112;53.592;10.184;2022-11-25T14:43:38;101297.22;;;7.45;100.00
16016;BME280;8112;53.592;10.184;2022-11-25T14:48:43;101301.41;;;7.51;100.00
16016;BME280;8112;53.592;10.184;2022-11-25T14:53:46;101313.31;;;7.60;100.00
16016;BME280;8112;53.592;10.184;2022-11-25T14:58:51;101310.50;;;7.40;100.00
16016;BME280;8112;53.592;10.184;2022-11-25T15:04:03;101322.63;;;7.45;100.00
16016;BME280;8112;53.592;10.184;2022-11-25T15:09:18;101322.47;;;7.24;100.00
16016;BME280;8112;53.592;10.184;2022-11-25T15:14:24;101326.31;;;7.13;100.00
16016;BME280;8112;53.592;10.184;2022-11-25T15:19:32;101335.63;;;7.22;100.00
16016;BME280;8112;53.592;10.184;2022-11-25T15:24:40;101335.78;;;7.18;100.00
16016;BME280;8112;53.592;10.184;2022-11-25T15:29:44;101338.81;;;7.31;100.00
16016;BME280;8112;53.592;10.184;2022-11-25T15:34:48;101342.34;;;7.30;100.00
16016;BME280;8112;53.592;10.184;2022-11-25T15:40:28;101351.88;;;7.32;100.00
16016;BME280;8112;53.592;10.184;2022-11-25T15:45:36;101357.41;;;7.24;100.00
16016;BME280;8112;53.592;10.184;2022-11-25T15:50:44;101359.91;;;7.27;100.00
16016;BME280;8112;53.592;10.184;2022-11-25T15:55:46;101361.63;;;7.28;100.00
16016;BME280;8112;53.592;10.184;2022-11-25T16:01:02;101365.66;;;7.39;100.00
16016;BME280;8112;53.592;10.184;2022-11-25T16:06:18;101367.22;;;7.43;100.00
16016;BME280;8112;53.592;10.184;2022-11-25T16:11:21;101377.63;;;7.46;100.00
16016;BME280;8112;53.592;10.184;2022-11-25T16:16:26;101380.22;;;7.46;100.00
16016;BME280;8112;53.592;10.184;2022-11-25T16:21:43;101384.56;;;7.47;100.00
16016;BME280;8112;53.592;10.184;2022-11-25T16:26:51;101401.41;;;7.41;100.00
16016;BME280;8112;53.592;10.184;2022-11-25T16:31:53;101398.31;;;7.28;100.00
16016;BME280;8112;53.592;10.184;2022-11-25T16:36:56;101417.19;;;7.40;100.00
16016;BME280;8112;53.592;10.184;2022-11-25T16:41:59;101425.63;;;7.48;100.00
16016;BME280;8112;53.592;10.184;2022-11-25T16:47:03;101427.31;;;7.49;100.00
16016;BME280;8112;53.592;10.184;2022-11-25T16:52:06;101433.41;;;7.51;100.00
16016;BME280;8112;53.592;10.184;2022-11-25T16:57:15;101441.31;;;7.50;100.00
16016;BME280;8112;53.592;10.184;2022-11-25T17:02:19;101447.44;;;7.50;100.00
16016;BME280;8112;53.592;10.184;2022-11-25T17:07:22;101455.13;;;7.55;100.00
16016;BME280;8112;53.592;10.184;2022-11-25T17:12:28;101458.72;;;7.52;100.00
16016;BME280;8112;53.592;10.184;2022-11-25T17:17:31;101467.38;;;7.54;100.00
16016;BME280;8112;53.592;10.184;2022-11-25T17:22:34;101459.72;;;7.48;100.00
16016;BME280;8112;53.592;10.184;2022-11-25T17:27:36;101465.59;;;7.55;100.00
16016;BME280;8112;53.592;10.184;2022-11-25T17:32:38;101474.28;;;7.57;100.00
16016;BME280;8112;53.592;10.184;2022-11-25T17:37:41;101479.63;;;7.54;100.00
16016;BME280;8112;53.592;10.184;2022-11-25T17:42:43;101490.09;;;7.55;100.00
16016;BME280;8112;53.592;10.184;2022-11-25T17:47:45;101497.03;;;7.56;100.00
16016;BME280;8112;53.592;10.184;2022-11-25T17:52:49;101508.22;;;7.62;100.00
16016;BME280;8112;53.592;10.184;2022-11-25T17:57:51;101503.38;;;7.49;100.00
16016;BME280;8112;53.592;10.184;2022-11-25T18:02:53;101499.94;;;7.49;100.00
16016;BME280;8112;53.592;10.184;2022-11-25T18:07:56;101510.16;;;7.56;100.00
16016;BME280;8112;53.592;10.184;2022-11-25T18:12:58;101518.53;;;7.41;100.00
16016;BME280;8112;53.592;10.184;2022-11-25T18:18:02;101527.59;;;7.58;100.00
16016;BME280;8112;53.592;10.184;2022-11-25T18:23:07;101539.16;;;7.52;100.00
16016;BME280;8112;53.592;10.184;2022-11-25T18:28:14;101532.00;;;7.30;100.00
16016;BME280;8112;53.592;10.184;2022-11-25T18:33:17;101540.97;;;7.23;100.00
16016;BME280;8112;53.592;10.184;2022-11-25T18:38:21;101545.72;;;7.38;100.00
16016;BME280;8112;53.592;10.184;2022-11-25T18:43:25;101555.16;;;7.44;100.00
16016;BME280;8112;53.592;10.184;2022-11-25T18:48:27;101558.53;;;7.48;100.00
16016;BME280;8112;53.592;10.184;2022-11-25T18:53:30;101562.75;;;7.52;100.00
16016;BME280;8112;53.592;10.184;2022-11-25T18:58:32;101577.84;;;7.45;100.00
16016;BME280;8112;53.592;10.184;2022-11-25T19:03:34;101581.50;;;7.39;100.00
16016;BME280;8112;53.592;10.184;2022-11-25T19:08:37;101586.72;;;7.41;100.00
16016;BME280;8112;53.592;10.184;2022-11-25T19:13:39;101585.16;;;7.35;100.00
16016;BME280;8112;53.592;10.184;2022-11-25T19:18:43;101599.22;;;7.33;100.00
16016;BME280;8112;53.592;10.184;2022-11-25T19:23:47;101597.59;;;7.28;100.00
16016;BME280;8112;53.592;10.184;2022-11-25T19:28:50;101613.16;;;7.35;100.00
16016;BME280;8112;53.592;10.184;2022-11-25T19:33:54;101606.19;;;7.34;100.00
16016;BME280;8112;53.592;10.184;2022-11-25T19:38:57;101616.44;;;7.41;100.00
16016;BME280;8112;53.592;10.184;2022-11-25T19:43:59;101625.16;;;7.42;100.00
16016;BME280;8112;53.592;10.184;2022-11-25T19:49:01;101630.69;;;7.33;100.00
16016;BME280;8112;53.592;10.184;2022-11-25T19:54:07;101642.25;;;7.25;100.00
16016;BME280;8112;53.592;10.184;2022-11-25T19:59:10;101651.84;;;7.26;100.00
16016;BME280;8112;53.592;10.184;2022-11-25T20:04:17;101663.09;;;7.30;100.00
16016;BME280;8112;53.592;10.184;2022-11-25T20:09:21;101663.78;;;7.37;100.00
16016;BME280;8112;53.592;10.184;2022-11-25T20:14:23;101672.66;;;7.33;100.00
16016;BME280;8112;53.592;10.184;2022-11-25T20:19:25;101674.31;;;7.35;100.00
16016;BME280;8112;53.592;10.184;2022-11-25T20:24:28;101679.84;;;7.26;100.00
16016;BME280;8112;53.592;10.184;2022-11-25T20:29:30;101681.22;;;7.38;100.00
16016;BME280;8112;53.592;10.184;2022-11-25T20:34:32;101698.47;;;7.45;100.00
16016;BME280;8112;53.592;10.184;2022-11-25T20:39:35;101700.88;;;7.53;100.00
16016;BME280;8112;53.592;10.184;2022-11-25T20:44:37;101716.34;;;7.62;100.00
16016;BME280;8112;53.592;10.184;2022-11-25T20:49:39;101724.25;;;7.61;100.00
16016;BME280;8112;53.592;10.184;2022-11-25T20:54:42;101728.56;;;7.63;100.00
16016;BME280;8112;53.592;10.184;2022-11-25T20:59:44;101731.00;;;7.68;100.00
16016;BME280;8112;53.592;10.184;2022-11-25T21:04:46;101738.00;;;7.69;100.00
16016;BME280;8112;53.592;10.184;2022-11-25T21:09:49;101741.44;;;7.71;100.00
16016;BME280;8112;53.592;10.184;2022-11-25T21:14:50;101750.03;;;7.76;100.00
16016;BME280;8112;53.592;10.184;2022-11-25T21:19:52;101763.09;;;7.78;100.00
16016;BME280;8112;53.592;10.184;2022-11-25T21:24:55;101771.97;;;7.74;100.00
16016;BME280;8112;53.592;10.184;2022-11-25T21:29:57;101779.59;;;7.81;100.00
16016;BME280;8112;53.592;10.184;2022-11-25T21:34:59;101780.47;;;7.82;100.00
16016;BME280;8112;53.592;10.184;2022-11-25T21:40:06;101799.53;;;7.89;100.00
16016;BME280;8112;53.592;10.184;2022-11-25T21:45:14;101802.22;;;7.85;100.00
16016;BME280;8112;53.592;10.184;2022-11-25T21:50:18;101803.94;;;7.87;100.00
16016;BME280;8112;53.592;10.184;2022-11-25T21:55:21;101809.81;;;7.95;100.00
16016;BME280;8112;53.592;10.184;2022-11-25T22:00:24;101822.84;;;7.98;100.00
16016;BME280;8112;53.592;10.184;2022-11-25T22:05:26;101824.56;;;7.99;100.00
16016;BME280;8112;53.592;10.184;2022-11-25T22:10:31;101825.66;;;7.92;100.00
16016;BME280;8112;53.592;10.184;2022-11-25T22:15:33;101830.91;;;7.92;100.00
16016;BME280;8112;53.592;10.184;2022-11-25T22:20:35;101831.84;;;7.89;100.00
16016;BME280;8112;53.592;10.184;2022-11-25T22:25:38;101836.63;;;7.76;100.00
16016;BME280;8112;53.592;10.184;2022-11-25T22:30:42;101839.72;;;7.59;100.00
16016;BME280;8112;53.592;10.184;2022-11-25T22:35:46;101846.88;;;7.54;100.00
16016;BME280;8112;53.592;10.184;2022-11-25T22:40:50;101852.69;;;7.34;100.00
16016;BME280;8112;53.592;10.184;2022-11-25T22:45:54;101852.84;;;7.27;100.00
16016;BME280;8112;53.592;10.184;2022-11-25T22:50:56;101856.34;;;7.26;100.00
16016;BME280;8112;53.592;10.184;2022-11-25T22:55:59;101859.19;;;7.19;100.00
16016;BME280;8112;53.592;10.184;2022-11-25T23:01:01;101871.94;;;6.99;100.00
16016;BME280;8112;53.592;10.184;2022-11-25T23:06:03;101878.06;;;6.98;100.00
16016;BME280;8112;53.592;10.184;2022-11-25T23:11:14;101880.19;;;6.82;100.00
16016;BME280;8112;53.592;10.184;2022-11-25T23:16:16;101880.72;;;6.62;100.00
16016;BME280;8112;53.592;10.184;2022-11-25T23:21:20;101890.28;;;6.63;100.00
16016;BME280;8112;53.592;10.184;2022-11-25T23:26:24;101904.22;;;6.64;100.00
16016;BME280;8112;53.592;10.184;2022-11-25T23:31:27;101903.72;;;6.48;100.00
16016;BME280;8112;53.592;10.184;2022-11-25T23:36:41;101904.66;;;6.45;100.00
16016;BME280;8112;53.592;10.184;2022-11-25T23:41:45;101913.47;;;6.43;100.00
16016;BME280;8112;53.592;10.184;2022-11-25T23:46:48;101920.41;;;6.44;100.00
16016;BME280;8112;53.592;10.184;2022-11-25T23:51:51;101932.94;;;6.29;100.00
16016;BME280;8112;53.592;10.184;2022-11-25T23:56:57;101942.66;;;6.24;100.00
